Time;durP1;ratioP1;P1;durP2;ratioP2;P2;SDS_P1;SDS_P2;PMS_P1;PMS_P2;Temp;Humidity;BMP_temperature;BMP_pressure;BME280_temperature;BME280_humidity;BME280_pressure;Samples;Min_cycle;Max_cycle;Signal;HPM_P1;HPM_P2
2022/08/17 00:01:39;;;;;;;7.87;3.83;;;21.20;99.90;;;;;;21158131;28;20156;-73
2022/08/17 00:11:42;;;;;;;7.43;3.40;;;21.20;99.90;;;;;;21169919;28;20058;-72
2022/08/17 00:21:46;;;;;;;6.32;3.35;;;21.10;99.90;;;;;;21174762;28;20516;-71
2022/08/17 00:31:47;;;;;;;9.18;3.60;;;21.00;99.90;;;;;;21174051;28;20043;-73
2022/08/17 00:41:48;;;;;;;8.05;3.50;;;20.90;99.90;;;;;;21173086;28;20444;-72
2022/08/17 00:51:58;;;;;;;5.50;3.47;;;21.00;99.90;;;;;;21154214;28;20085;-72
2022/08/17 01:02:01;;;;;;;4.85;3.75;;;21.10;99.90;;;;;;21153666;28;20032;-72
2022/08/17 01:12:05;;;;;;;5.40;3.75;;;20.90;99.90;;;;;;21171105;28;20111;-72
2022/08/17 01:22:13;;;;;;;4.22;3.10;;;21.00;99.90;;;;;;21169003;28;20122;-73
2022/08/17 01:32:14;;;;;;;6.13;4.07;;;21.00;99.90;;;;;;21169391;28;20429;-72
2022/08/17 01:42:31;;;;;;;6.53;3.45;;;21.00;99.90;;;;;;21168756;28;20046;-72
2022/08/17 01:52:33;;;;;;;12.02;4.15;;;20.90;99.90;;;;;;21167905;28;20049;-72
2022/08/17 02:02:33;;;;;;;;;;;20.90;99.90;;;;;;21153846;28;20120;-72
2022/08/17 02:12:36;;;;;;;11.43;4.73;;;20.80;99.90;;;;;;21166624;28;19943;-72
2022/08/17 02:22:39;;;;;;;6.75;5.00;;;20.70;99.90;;;;;;21165564;28;20042;-72
2022/08/17 02:32:40;;;;;;;9.20;4.82;;;20.60;99.90;;;;;;21164170;28;20046;-72
2022/08/17 02:42:43;;;;;;;7.10;4.93;;;20.60;99.90;;;;;;21163673;28;20118;-71
2022/08/17 02:52:45;;;;;;;5.55;4.50;;;20.80;99.90;;;;;;21162968;28;20074;-71
2022/08/17 03:02:46;;;;;;;6.85;5.07;;;20.90;99.90;;;;;;21162274;28;20034;-72
2022/08/17 03:12:47;;;;;;;6.70;4.57;;;20.80;99.90;;;;;;21161900;28;20039;-72
2022/08/17 03:22:51;;;;;;;8.57;5.03;;;20.70;99.90;;;;;;21160737;28;20035;-72
2022/08/17 03:32:55;;;;;;;7.82;4.78;;;20.70;99.90;;;;;;21159611;28;20439;-72
2022/08/17 03:42:56;;;;;;;12.35;5.03;;;20.60;99.90;;;;;;21158671;28;20092;-73
2022/08/17 04:03:17;;;;;;;7.60;5.05;;;20.40;99.90;;;;;;21158245;28;20417;-72
2022/08/17 04:13:18;;;;;;;6.40;4.80;;;20.10;99.90;;;;;;21158067;28;20038;-72
2022/08/17 04:23:19;;;;;;;6.73;4.60;;;20.10;99.90;;;;;;21158222;28;20039;-72
2022/08/17 04:33:23;;;;;;;9.93;4.67;;;20.00;99.90;;;;;;21157159;28;20039;-72
2022/08/17 04:43:29;;;;;;;7.07;4.43;;;20.00;99.90;;;;;;21156837;28;20044;-72
2022/08/17 04:53:31;;;;;;;7.32;4.55;;;20.00;99.90;;;;;;21160866;28;20108;-73
2022/08/17 05:03:33;;;;;;;8.00;4.80;;;20.00;99.90;;;;;;21172033;28;20036;-73
2022/08/17 05:13:34;;;;;;;8.20;4.85;;;20.00;99.90;;;;;;21152818;28;20047;-73
2022/08/17 05:23:36;;;;;;;10.20;4.67;;;20.00;99.90;;;;;;21170455;28;20434;-72
2022/08/17 05:33:39;;;;;;;5.32;4.45;;;20.10;99.90;;;;;;21169263;28;20074;-72
2022/08/17 05:43:41;;;;;;;7.90;5.13;;;20.30;99.90;;;;;;21171410;28;20063;-75
2022/08/17 05:53:47;;;;;;;7.85;4.60;;;20.10;99.90;;;;;;21162482;28;20122;-75
2022/08/17 06:04:08;;;;;;;12.15;5.78;;;20.30;99.90;;;;;;21165738;28;20093;-74
2022/08/17 06:14:17;;;;;;;9.13;5.15;;;19.90;99.90;;;;;;21151684;28;20406;-75
2022/08/17 06:24:27;;;;;;;6.05;5.00;;;20.20;99.90;;;;;;21165760;28;20039;-74
2022/08/17 06:34:28;;;;;;;9.32;4.93;;;20.10;99.90;;;;;;21165970;28;20055;-74
2022/08/17 06:44:33;;;;;;;;;;;19.90;99.90;;;;;;21164561;28;20409;-75
2022/08/17 06:54:49;;;;;;;6.07;4.82;;;19.80;99.90;;;;;;21162987;28;19908;-74
2022/08/17 07:04:51;;;;;;;7.75;4.43;;;20.60;99.90;;;;;;21162024;28;20046;-74
2022/08/17 07:14:59;;;;;;;7.05;4.45;;;21.90;99.90;;;;;;21143862;28;20051;-75
2022/08/17 07:25:04;;;;;;;8.88;4.47;;;23.20;99.90;;;;;;21167089;28;20071;-75
2022/08/17 07:35:17;;;;;;;8.52;4.65;;;23.70;99.90;;;;;;21137145;28;20113;-75
2022/08/17 07:55:40;;;;;;;12.15;4.00;;;24.50;99.90;;;;;;21158057;28;20035;-74
2022/08/17 08:05:50;;;;;;;5.18;3.78;;;25.70;99.90;;;;;;21157710;28;20401;-75
2022/08/17 08:15:54;;;;;;;6.28;3.63;;;25.70;99.90;;;;;;21157611;28;20055;-75
2022/08/17 08:26:12;;;;;;;8.02;3.97;;;25.70;99.90;;;;;;21132404;28;20040;-75
2022/08/17 08:36:37;;;;;;;7.40;3.65;;;25.20;99.90;;;;;;21089481;28;20051;-75
2022/08/17 08:47:13;;;;;;;4.47;2.90;;;25.90;99.90;;;;;;21095530;28;20036;-75
2022/08/17 08:57:24;;;;;;;5.65;3.20;;;25.70;99.90;;;;;;21072165;28;20043;-74
2022/08/17 09:07:45;;;;;;;6.23;2.80;;;24.50;99.90;;;;;;21085128;28;20044;-75
2022/08/17 09:17:54;;;;;;;5.67;2.70;;;27.20;99.90;;;;;;21010619;28;20040;-75
2022/08/17 09:28:05;;;;;;;5.47;2.90;;;28.30;99.90;;;;;;20984010;28;20033;-74
2022/08/17 09:38:24;;;;;;;;;;;28.30;99.90;;;;;;21001037;28;20097;-73
2022/08/17 09:48:30;;;;;;;6.03;2.72;;;27.90;99.90;;;;;;21002916;28;20053;-74
2022/08/17 09:58:56;;;;;;;3.72;2.90;;;28.90;99.90;;;;;;20982943;28;20043;-74
2022/08/17 10:09:10;;;;;;;3.45;2.78;;;28.20;99.90;;;;;;20999158;28;20502;-74
2022/08/17 10:19:14;;;;;;;3.67;2.65;;;29.50;99.90;;;;;;20998165;28;20040;-74
2022/08/17 10:29:26;;;;;;;5.88;2.60;;;30.10;99.90;;;;;;20997418;28;20033;-74
2022/08/17 10:39:36;;;;;;;4.90;2.72;;;30.40;99.90;;;;;;20996438;28;20407;-74
2022/08/17 10:49:46;;;;;;;5.85;2.72;;;30.00;99.90;;;;;;21031007;28;20430;-74
2022/08/17 10:59:49;;;;;;;4.05;2.60;;;29.60;99.90;;;;;;21143573;28;20040;-75
2022/08/17 11:10:15;;;;;;;5.88;2.97;;;29.30;99.90;;;;;;21084737;28;20124;-74
2022/08/17 11:20:22;;;;;;;5.47;2.80;;;28.70;99.90;;;;;;21080951;28;20036;-73
2022/08/17 11:30:45;;;;;;;3.80;2.53;;;29.90;99.90;;;;;;21079227;28;20075;-74
2022/08/17 11:41:08;;;;;;;4.03;2.72;;;30.10;99.90;;;;;;21057937;28;20055;-74
2022/08/17 11:51:33;;;;;;;5.97;2.72;;;29.60;99.90;;;;;;21075799;28;20028;-73
2022/08/17 12:01:55;;;;;;;3.83;2.45;;;30.90;99.90;;;;;;21073493;28;20529;-74
2022/08/17 12:12:28;;;;;;;5.10;3.03;;;32.30;99.90;;;;;;21074010;28;20055;-74
2022/08/17 12:22:59;;;;;;;3.00;2.20;;;33.20;99.50;;;;;;21073310;28;20489;-75
2022/08/17 12:33:00;;;;;;;5.30;2.45;;;33.20;99.00;;;;;;21061049;28;20066;-74
2022/08/17 12:43:06;;;;;;;3.33;2.60;;;33.20;98.20;;;;;;21073495;28;20044;-74
2022/08/17 12:53:34;;;;;;;4.05;2.42;;;31.10;99.90;;;;;;21074622;28;20456;-74
2022/08/17 13:03:48;;;;;;;3.85;2.47;;;31.90;99.80;;;;;;21152810;28;20039;-74
2022/08/17 13:13:54;;;;;;;3.60;2.70;;;33.50;98.20;;;;;;21157126;28;20062;-74
2022/08/17 13:24:12;;;;;;;9.60;2.75;;;33.50;97.60;;;;;;21172860;28;20042;-74
2022/08/17 13:34:16;;;;;;;5.00;2.10;;;33.40;96.60;;;;;;21171082;28;20062;-73
2022/08/17 13:44:35;;;;;;;6.85;2.35;;;33.10;96.60;;;;;;21170016;28;20501;-73
2022/08/17 13:54:38;;;;;;;9.63;2.73;;;33.80;95.50;;;;;;21169730;28;20506;-73
2022/08/17 14:04:41;;;;;;;4.03;2.40;;;32.70;96.40;;;;;;21167806;28;20375;-73
2022/08/17 14:14:43;;;;;;;8.15;2.80;;;32.60;95.90;;;;;;21171777;28;20126;-73
2022/08/17 14:24:44;;;;;;;3.17;2.25;;;32.40;95.80;;;;;;21165422;28;20039;-74
2022/08/17 14:34:46;;;;;;;3.63;2.50;;;32.00;96.60;;;;;;21164095;28;20586;-73
2022/08/17 14:44:47;;;;;;;6.38;2.55;;;31.40;97.10;;;;;;21083699;28;20059;-73
2022/08/17 14:54:50;;;;;;;4.73;2.50;;;30.70;97.60;;;;;;21079108;28;20123;-74
2022/08/17 15:04:50;;;;;;;5.10;2.63;;;30.20;98.30;;;;;;21078369;28;20336;-74
2022/08/17 15:14:51;;;;;;;11.07;2.53;;;30.00;98.20;;;;;;21078134;28;20040;-72
2022/08/17 15:24:54;;;;;;;6.40;2.75;;;27.30;99.90;;;;;;21076871;28;20056;-75
2022/08/17 15:34:57;;;;;;;10.68;3.30;;;25.70;99.90;;;;;;21082553;28;20086;-75
2022/08/17 15:45:05;;;;;;;8.80;3.55;;;24.50;99.90;;;;;;21097017;28;20115;-74
2022/08/17 15:55:11;;;;;;;9.50;4.38;;;24.40;99.90;;;;;;21074578;28;20459;-72
2022/08/17 16:05:15;;;;;;;5.57;3.05;;;24.50;99.90;;;;;;21073993;28;20047;-74
2022/08/17 16:15:17;;;;;;;6.55;2.83;;;23.80;99.90;;;;;;21073429;28;20537;-74
2022/08/17 16:25:22;;;;;;;4.68;2.00;;;24.40;99.90;;;;;;21072985;28;20044;-74
2022/08/17 16:35:25;;;;;;;3.13;2.30;;;24.20;99.90;;;;;;21072603;28;20036;-73
2022/08/17 16:45:35;;;;;;;3.60;2.38;;;23.30;99.90;;;;;;21071980;28;20075;-74
2022/08/17 16:55:36;;;;;;;3.78;2.80;;;23.00;99.90;;;;;;21082547;28;20036;-75
2022/08/17 17:05:58;;;;;;;3.88;2.70;;;23.10;99.90;;;;;;21087307;28;20173;-74
2022/08/17 17:16:05;;;;;;;3.77;2.20;;;23.30;99.90;;;;;;21086452;28;20040;-75
2022/08/17 17:26:34;;;;;;;3.20;2.10;;;23.40;99.90;;;;;;21086204;28;20599;-75
2022/08/17 17:36:55;;;;;;;6.13;2.55;;;23.40;99.90;;;;;;21128820;22;20052;-78
2022/08/17 17:46:59;;;;;;;8.97;3.13;;;23.10;99.90;;;;;;21111820;28;20047;-77
2022/08/17 17:57:24;;;;;;;4.65;2.65;;;22.80;99.90;;;;;;21109944;28;20046;-77
2022/08/17 18:07:43;;;;;;;5.68;3.08;;;22.30;99.90;;;;;;21108179;28;20040;-77
2022/08/17 18:18:14;;;;;;;7.45;4.38;;;22.10;99.90;;;;;;21110180;28;20043;-77
2022/08/17 18:28:42;;;;;;;6.22;4.10;;;21.50;99.90;;;;;;21106838;28;20048;-78
2022/08/17 18:38:43;;;;;;;8.07;4.22;;;20.90;99.90;;;;;;21088669;28;20130;-78
2022/08/17 18:48:58;;;;;;;5.40;3.70;;;20.70;99.90;;;;;;21105250;28;20039;-77
2022/08/17 18:59:04;;;;;;;7.55;4.35;;;20.40;99.90;;;;;;21096848;28;20064;-78
2022/08/17 19:09:31;;;;;;;15.32;4.70;;;19.70;99.90;;;;;;21075692;28;20109;-80
2022/08/17 19:19:41;;;;;;;9.27;4.53;;;19.20;99.90;;;;;;21075045;28;20330;-78
2022/08/17 19:29:48;;;;;;;12.13;5.07;;;18.60;99.90;;;;;;21089685;28;20036;-78
2022/08/17 19:39:58;;;;;;;6.68;4.30;;;18.40;99.90;;;;;;21091286;28;20032;-78
2022/08/17 19:50:07;;;;;;;11.48;5.15;;;18.30;99.90;;;;;;21072292;28;20120;-79
2022/08/17 20:00:12;;;;;;;8.80;4.60;;;18.50;99.90;;;;;;21070548;28;20067;-79
2022/08/17 20:10:44;;;;;;;9.43;5.15;;;18.50;99.90;;;;;;21086236;28;20127;-79
2022/08/17 20:20:47;;;;;;;8.65;5.88;;;18.10;99.90;;;;;;21088552;28;20044;-78
2022/08/17 20:30:50;;;;;;;10.35;5.43;;;17.60;99.90;;;;;;21103512;28;20083;-78
2022/08/17 20:40:53;;;;;;;7.88;5.10;;;17.40;99.90;;;;;;21105482;28;20119;-78
2022/08/17 20:50:59;;;;;;;7.45;4.93;;;17.40;99.90;;;;;;21101200;28;20096;-78
2022/08/17 21:01:12;;;;;;;7.43;4.70;;;17.30;99.90;;;;;;21096820;28;20040;-77
2022/08/17 21:11:30;;;;;;;8.05;4.85;;;17.40;99.90;;;;;;21099749;28;20498;-77
2022/08/17 21:21:56;;;;;;;10.10;5.05;;;17.30;99.90;;;;;;21079281;28;20156;-77
2022/08/17 21:32:03;;;;;;;7.82;5.22;;;17.30;99.90;;;;;;21095017;28;20048;-77
2022/08/17 21:42:06;;;;;;;8.43;5.45;;;17.40;99.90;;;;;;21091968;28;20131;-78
2022/08/17 21:52:11;;;;;;;8.10;5.05;;;17.20;99.90;;;;;;21093415;28;20062;-79
2022/08/17 22:02:40;;;;;;;8.63;4.32;;;17.20;99.90;;;;;;21097156;28;20455;-79
2022/08/17 22:13:05;;;;;;;8.52;5.18;;;17.30;99.90;;;;;;21077824;28;20077;-78
2022/08/17 22:33:32;;;;;;;9.10;5.30;;;17.00;99.90;;;;;;21096468;28;20066;-79
2022/08/17 22:43:37;;;;;;;9.50;5.53;;;17.20;99.90;;;;;;21097207;28;20032;-77
2022/08/17 23:04:11;;;;;;;9.43;5.68;;;17.10;99.90;;;;;;21096227;28;20115;-78
2022/08/17 23:14:14;;;;;;;8.68;5.03;;;17.00;99.90;;;;;;21094858;28;20036;-79
2022/08/17 23:24:21;;;;;;;13.00;5.82;;;16.90;99.90;;;;;;21093983;28;20044;-78
2022/08/17 23:34:23;;;;;;;8.10;5.47;;;16.90;99.90;;;;;;21089562;22;20048;-80
2022/08/17 23:44:24;;;;;;;9.18;6.00;;;17.10;99.90;;;;;;21094285;28;20054;-80
2022/08/17 23:54:36;;;;;;;12.15;5.88;;;17.00;99.90;;;;;;21115972;28;20559;-79
